Terminal Aerodrome Forecast
Issued by NWS Birmingham, AL

Home | Current Version | Previous Version | Text Only | Print | Product List | Glossary On
Versions: 1 2 3 4 5 6 7 8 9 10 11 12 13 14 15
000
FTUS44 KBMX 241700
TAFBHM
TAF
KBHM 241736Z 2418/2518 17008KT P6SM SCT070 SCT250
     FM242000 18008KT P6SM SCT040 BKN250
     FM250700 20010KT P6SM SHRA BKN020 OVC050
     FM251200 28013KT P6SM OVC020=

USA.gov is the U.S. government's official web portal to all federal, state and local government web resources and services.